Time;durP1;ratioP1;P1;durP2;ratioP2;P2;SDS_P1;SDS_P2;PMS_P1;PMS_P2;Temp;Humidity;BMP_temperature;BMP_pressure;BME280_temperature;BME280_humidity;BME280_pressure;Samples;Min_cycle;Max_cycle;Signal;HPM_P1;HPM_P2
2021/08/13 00:01:21;;;;;;;18.08;10.55;;;;;;;;;;5065119;28;20028;-78
2021/08/13 00:03:46;;;;;;;19.08;10.43;;;;;;;;;;5063304;28;20031;-78
2021/08/13 00:06:12;;;;;;;17.17;10.80;;;;;;;;;;5059560;28;20053;-78
2021/08/13 00:08:37;;;;;;;15.13;10.80;;;;;;;;;;5072258;28;20024;-78
2021/08/13 00:11:03;;;;;;;16.30;9.95;;;;;;;;;;5071959;28;20028;-78
2021/08/13 00:13:28;;;;;;;20.17;10.00;;;;;;;;;;5067445;28;20029;-78
2021/08/13 00:15:53;;;;;;;16.58;9.38;;;;;;;;;;5068238;28;20035;-78
2021/08/13 00:18:19;;;;;;;14.10;9.13;;;;;;;;;;5059130;28;20400;-78
2021/08/13 00:20:44;;;;;;;14.68;9.88;;;;;;;;;;5074411;28;20607;-78
2021/08/13 00:23:09;;;;;;;13.20;9.60;;;;;;;;;;5072595;28;20035;-78
2021/08/13 00:25:34;;;;;;;13.68;9.00;;;;;;;;;;5071077;28;20047;-78
2021/08/13 00:28:00;;;;;;;12.40;9.20;;;;;;;;;;5075328;28;20027;-78
2021/08/13 00:30:25;;;;;;;16.73;10.48;;;;;;;;;;5071241;28;20061;-78
2021/08/13 00:32:50;;;;;;;26.20;11.02;;;;;;;;;;5095844;28;20035;-78
2021/08/13 00:35:16;;;;;;;21.08;11.05;;;;;;;;;;5082612;28;20366;-78
2021/08/13 00:37:41;;;;;;;21.52;11.20;;;;;;;;;;5056774;28;20032;-78
2021/08/13 00:40:07;;;;;;;16.15;11.25;;;;;;;;;;5076137;28;20027;-78
2021/08/13 00:42:33;;;;;;;16.90;11.48;;;;;;;;;;5066424;28;20028;-78
2021/08/13 00:44:58;;;;;;;20.33;11.88;;;;;;;;;;5056593;28;20033;-78
2021/08/13 00:47:24;;;;;;;15.10;11.15;;;;;;;;;;5055170;28;20032;-78
2021/08/13 00:49:49;;;;;;;20.08;11.63;;;;;;;;;;5063501;28;20389;-78
2021/08/13 00:52:16;;;;;;;18.92;11.63;;;;;;;;;;5054540;28;20040;-78
2021/08/13 00:54:41;;;;;;;19.20;11.65;;;;;;;;;;5056839;28;20021;-78
2021/08/13 00:57:07;;;;;;;16.58;10.32;;;;;;;;;;5057782;28;20031;-78
2021/08/13 00:59:33;;;;;;;19.13;11.32;;;;;;;;;;5060951;28;20029;-78
2021/08/13 01:01:58;;;;;;;15.13;10.38;;;;;;;;;;5056174;28;20044;-78
2021/08/13 01:04:23;;;;;;;14.15;9.60;;;;;;;;;;5060400;28;20056;-78
2021/08/13 01:06:49;;;;;;;20.35;10.40;;;;;;;;;;5071637;28;20031;-78
2021/08/13 01:09:14;;;;;;;26.88;10.32;;;;;;;;;;5072244;28;20116;-78
2021/08/13 01:12:15;;;;;;;15.70;9.88;;;;;;;;;;5059765;28;20021;-78
2021/08/13 01:14:57;;;;;;;14.57;9.82;;;;;;;;;;5075117;28;20074;-78
2021/08/13 01:17:22;;;;;;;13.30;9.63;;;;;;;;;;5074405;28;20374;-78
2021/08/13 01:20:11;;;;;;;14.68;10.32;;;;;;;;;;5068614;28;20032;-78
2021/08/13 01:22:55;;;;;;;18.52;10.90;;;;;;;;;;5065099;28;20020;-78
2021/08/13 01:25:25;;;;;;;14.52;9.88;;;;;;;;;;5060174;28;20055;-78
2021/08/13 01:27:52;;;;;;;20.08;11.07;;;;;;;;;;5068804;28;20025;-78
2021/08/13 01:30:20;;;;;;;20.17;11.95;;;;;;;;;;5075593;28;20025;-78
2021/08/13 01:32:47;;;;;;;22.48;12.40;;;;;;;;;;5073510;28;20443;-78
2021/08/13 01:35:24;;;;;;;16.90;12.52;;;;;;;;;;5066566;28;20025;-78
2021/08/13 01:38:18;;;;;;;17.23;10.57;;;;;;;;;;5060229;28;20029;-78
2021/08/13 01:40:47;;;;;;;23.15;12.50;;;;;;;;;;5059086;28;20447;-77
2021/08/13 01:43:17;;;;;;;21.40;11.35;;;;;;;;;;5071752;28;20028;-78
2021/08/13 01:45:44;;;;;;;16.75;11.55;;;;;;;;;;5101526;28;20099;-78
2021/08/13 01:48:10;;;;;;;14.88;10.32;;;;;;;;;;5081740;28;20025;-78
2021/08/13 01:50:36;;;;;;;17.88;10.52;;;;;;;;;;5077470;28;20024;-78
2021/08/13 01:53:03;;;;;;;16.10;10.93;;;;;;;;;;5070222;28;20538;-78
2021/08/13 01:55:30;;;;;;;15.63;10.23;;;;;;;;;;5058809;28;20021;-78
2021/08/13 01:57:56;;;;;;;16.17;10.00;;;;;;;;;;5060592;28;20053;-78
2021/08/13 02:00:23;;;;;;;15.15;9.65;;;;;;;;;;5059562;28;20057;-78
2021/08/13 02:02:50;;;;;;;14.38;9.52;;;;;;;;;;5058414;28;20021;-77
2021/08/13 02:05:18;;;;;;;14.50;10.00;;;;;;;;;;5075468;28;20028;-78
2021/08/13 02:07:44;;;;;;;13.02;10.05;;;;;;;;;;5074379;28;20081;-78
2021/08/13 02:10:11;;;;;;;14.38;9.52;;;;;;;;;;5073985;28;20024;-78
2021/08/13 02:12:37;;;;;;;12.55;9.25;;;;;;;;;;5066214;28;20020;-78
2021/08/13 02:15:05;;;;;;;15.05;10.20;;;;;;;;;;5057182;28;20028;-78
2021/08/13 02:17:33;;;;;;;25.77;10.80;;;;;;;;;;5059199;28;20501;-78
2021/08/13 02:20:07;;;;;;;16.65;10.35;;;;;;;;;;5059572;28;20489;-78
2021/08/13 02:22:32;;;;;;;15.77;9.85;;;;;;;;;;5073872;28;20084;-78
2021/08/13 02:24:58;;;;;;;15.45;10.38;;;;;;;;;;5073513;28;20056;-78
2021/08/13 02:27:25;;;;;;;14.13;10.15;;;;;;;;;;5076998;28;20031;-78
2021/08/13 02:29:51;;;;;;;17.25;11.40;;;;;;;;;;5069277;28;20021;-78
2021/08/13 02:32:17;;;;;;;20.48;12.13;;;;;;;;;;5071926;28;20033;-78
2021/08/13 02:34:43;;;;;;;19.48;11.38;;;;;;;;;;5059545;28;20469;-78
2021/08/13 02:37:21;;;;;;;19.52;11.90;;;;;;;;;;5066095;28;20074;-78
2021/08/13 02:39:55;;;;;;;20.27;12.18;;;;;;;;;;5068797;28;20020;-78
2021/08/13 02:42:32;;;;;;;17.25;12.63;;;;;;;;;;5073348;28;20037;-77
2021/08/13 02:45:00;;;;;;;23.70;15.63;;;;;;;;;;5070358;28;20031;-78
2021/08/13 02:47:29;;;;;;;23.13;13.65;;;;;;;;;;5084099;28;20387;-78
2021/08/13 02:49:59;;;;;;;23.00;13.48;;;;;;;;;;5077023;28;20374;-78
2021/08/13 02:52:29;;;;;;;21.52;12.82;;;;;;;;;;5076409;28;20032;-78
2021/08/13 02:55:03;;;;;;;20.27;13.02;;;;;;;;;;5071759;28;20033;-79
2021/08/13 02:57:32;;;;;;;17.98;13.07;;;;;;;;;;5059353;28;20033;-78
2021/08/13 03:00:01;;;;;;;22.25;12.98;;;;;;;;;;5059745;28;20029;-78
2021/08/13 03:02:27;;;;;;;18.00;12.60;;;;;;;;;;5072912;28;20107;-78
2021/08/13 03:04:54;;;;;;;21.05;12.75;;;;;;;;;;5062225;28;20033;-78
2021/08/13 03:07:20;;;;;;;21.77;12.90;;;;;;;;;;5079419;28;20069;-78
2021/08/13 03:09:46;;;;;;;22.95;13.90;;;;;;;;;;5071529;28;20123;-77
2021/08/13 03:12:12;;;;;;;20.35;14.20;;;;;;;;;;5059727;28;20031;-78
2021/08/13 03:14:39;;;;;;;22.60;13.88;;;;;;;;;;5077531;28;20111;-78
2021/08/13 03:17:05;;;;;;;20.77;13.48;;;;;;;;;;5074121;28;20028;-78
2021/08/13 03:19:30;;;;;;;26.67;14.57;;;;;;;;;;5061425;28;20029;-78
2021/08/13 03:21:56;;;;;;;21.63;13.43;;;;;;;;;;5058533;28;20021;-77
2021/08/13 03:24:22;;;;;;;19.35;13.48;;;;;;;;;;5073615;28;20025;-78
2021/08/13 03:26:48;;;;;;;21.60;13.05;;;;;;;;;;5077342;28;20485;-78
2021/08/13 03:29:15;;;;;;;18.77;13.15;;;;;;;;;;5060448;28;20047;-78
2021/08/13 03:31:45;;;;;;;23.05;14.40;;;;;;;;;;5059487;28;20033;-78
2021/08/13 03:34:12;;;;;;;20.77;14.38;;;;;;;;;;5059929;28;20029;-78
2021/08/13 03:36:38;;;;;;;22.50;14.20;;;;;;;;;;5075812;28;20032;-78
2021/08/13 03:39:05;;;;;;;19.20;13.90;;;;;;;;;;5075542;28;20020;-78
2021/08/13 03:41:30;;;;;;;25.17;15.40;;;;;;;;;;5076951;28;20427;-78
2021/08/13 03:43:55;;;;;;;21.33;15.05;;;;;;;;;;5073620;28;20028;-78
2021/08/13 03:46:21;;;;;;;20.85;15.07;;;;;;;;;;5072474;28;20025;-78
2021/08/13 03:48:46;;;;;;;30.02;16.48;;;;;;;;;;5068562;28;20020;-79
2021/08/13 03:51:11;;;;;;;23.88;15.77;;;;;;;;;;5087574;28;20076;-79
2021/08/13 03:53:37;;;;;;;23.27;16.15;;;;;;;;;;5058063;28;20036;-79
2021/08/13 03:56:03;;;;;;;26.63;15.90;;;;;;;;;;5056705;28;20056;-78
2021/08/13 03:58:29;;;;;;;23.45;15.25;;;;;;;;;;5074788;28;20032;-78
2021/08/13 04:00:55;;;;;;;26.98;15.93;;;;;;;;;;5063720;28;20032;-78
2021/08/13 04:03:20;;;;;;;24.75;16.00;;;;;;;;;;5062103;28;20428;-79
2021/08/13 04:05:45;;;;;;;23.02;15.50;;;;;;;;;;5064041;28;20071;-78
2021/08/13 04:08:11;;;;;;;22.55;16.33;;;;;;;;;;5077989;28;20028;-79
2021/08/13 04:10:36;;;;;;;25.38;16.58;;;;;;;;;;5064697;28;20463;-78
2021/08/13 04:13:01;;;;;;;26.50;17.33;;;;;;;;;;5069820;28;20400;-78
2021/08/13 04:15:28;;;;;;;23.20;15.77;;;;;;;;;;5062893;28;20068;-78
2021/08/13 04:17:54;;;;;;;27.05;15.77;;;;;;;;;;5076156;28;20024;-78
2021/08/13 04:20:19;;;;;;;27.83;16.90;;;;;;;;;;5081789;28;20058;-78
2021/08/13 04:22:44;;;;;;;29.77;17.38;;;;;;;;;;5070817;28;20042;-79
2021/08/13 04:25:10;;;;;;;28.65;17.27;;;;;;;;;;5059508;28;20473;-78
2021/08/13 04:27:35;;;;;;;27.67;16.58;;;;;;;;;;5061773;28;20031;-78
2021/08/13 04:30:01;;;;;;;24.70;16.52;;;;;;;;;;5071046;28;20023;-78
2021/08/13 04:32:26;;;;;;;29.67;18.27;;;;;;;;;;5084447;28;20109;-79
2021/08/13 04:34:51;;;;;;;27.50;16.90;;;;;;;;;;5079644;28;20031;-78
2021/08/13 04:37:17;;;;;;;26.50;17.45;;;;;;;;;;5065853;28;20032;-78
2021/08/13 04:39:42;;;;;;;25.63;17.25;;;;;;;;;;5065676;28;20393;-78
2021/08/13 04:42:07;;;;;;;25.42;17.00;;;;;;;;;;5061262;28;20029;-78
2021/08/13 04:44:33;;;;;;;29.83;17.85;;;;;;;;;;5069903;28;20052;-79
2021/08/13 04:46:59;;;;;;;30.05;17.67;;;;;;;;;;5067281;28;20032;-79
2021/08/13 04:49:26;;;;;;;29.35;17.73;;;;;;;;;;5066602;28;20025;-78
2021/08/13 04:51:52;;;;;;;25.05;17.48;;;;;;;;;;5078986;28;20025;-78
2021/08/13 04:54:17;;;;;;;25.27;16.80;;;;;;;;;;5071087;28;20069;-79
2021/08/13 04:56:42;;;;;;;31.13;18.75;;;;;;;;;;5083505;28;20024;-78
2021/08/13 04:59:08;;;;;;;27.98;17.63;;;;;;;;;;5070029;28;20096;-78
2021/08/13 05:01:33;;;;;;;28.17;18.23;;;;;;;;;;5068771;28;20032;-78
2021/08/13 05:03:59;;;;;;;29.40;19.38;;;;;;;;;;5070370;28;20044;-78
2021/08/13 05:06:24;;;;;;;25.85;18.60;;;;;;;;;;5079024;28;20024;-78
2021/08/13 05:08:49;;;;;;;28.55;18.05;;;;;;;;;;5077803;28;20050;-79
2021/08/13 05:11:15;;;;;;;29.88;19.13;;;;;;;;;;5079254;28;20044;-78
2021/08/13 05:13:40;;;;;;;46.58;19.75;;;;;;;;;;5071398;28;20025;-78
2021/08/13 05:16:05;;;;;;;29.42;18.75;;;;;;;;;;5053854;28;20029;-77
2021/08/13 05:18:33;;;;;;;36.53;20.40;;;;;;;;;;5054459;28;20025;-78
2021/08/13 05:20:58;;;;;;;28.88;19.52;;;;;;;;;;5057980;28;20041;-77
2021/08/13 05:23:24;;;;;;;33.13;20.13;;;;;;;;;;5057172;28;20029;-78
2021/08/13 05:25:49;;;;;;;33.28;19.23;;;;;;;;;;5054344;28;20086;-78
2021/08/13 05:28:14;;;;;;;31.73;20.25;;;;;;;;;;5059384;28;20163;-78
2021/08/13 05:30:40;;;;;;;31.73;20.08;;;;;;;;;;5070010;28;20020;-78
2021/08/13 05:33:06;;;;;;;32.05;19.85;;;;;;;;;;5077379;28;20028;-78
2021/08/13 05:35:31;;;;;;;32.28;20.35;;;;;;;;;;5077612;28;20102;-78
2021/08/13 05:37:58;;;;;;;31.27;20.45;;;;;;;;;;5075939;28;20025;-78
2021/08/13 05:40:24;;;;;;;33.92;19.67;;;;;;;;;;5077001;28;20024;-78
2021/08/13 05:42:49;;;;;;;28.33;19.85;;;;;;;;;;5068440;28;20039;-78
2021/08/13 05:45:14;;;;;;;30.75;20.15;;;;;;;;;;5078326;28;20495;-78
2021/08/13 05:47:40;;;;;;;29.75;19.65;;;;;;;;;;5075226;28;20080;-78
2021/08/13 05:50:07;;;;;;;31.05;19.80;;;;;;;;;;5079580;28;20021;-78
2021/08/13 05:52:32;;;;;;;35.90;20.38;;;;;;;;;;5069381;28;20025;-78
2021/08/13 05:54:57;;;;;;;28.92;19.27;;;;;;;;;;5062215;28;20162;-78
2021/08/13 05:57:23;;;;;;;31.23;19.52;;;;;;;;;;5073011;28;20052;-78
2021/08/13 05:59:48;;;;;;;30.85;19.38;;;;;;;;;;5078402;28;20082;-78
2021/08/13 06:02:18;;;;;;;32.42;20.13;;;;;;;;;;5062721;28;20074;-78
2021/08/13 06:04:43;;;;;;;31.70;18.92;;;;;;;;;;5078696;28;20484;-78
2021/08/13 06:07:08;;;;;;;32.92;19.35;;;;;;;;;;5077130;28;20089;-78
2021/08/13 06:09:34;;;;;;;32.17;18.88;;;;;;;;;;5076405;28;20063;-78
2021/08/13 06:11:59;;;;;;;28.20;19.23;;;;;;;;;;5078826;28;20054;-78
2021/08/13 06:14:24;;;;;;;31.55;20.52;;;;;;;;;;5069881;28;20099;-78
2021/08/13 06:16:50;;;;;;;39.92;19.38;;;;;;;;;;5063425;28;20021;-78
2021/08/13 06:19:15;;;;;;;27.42;18.95;;;;;;;;;;5064223;28;20021;-78
2021/08/13 06:21:41;;;;;;;36.33;19.63;;;;;;;;;;5068654;28;20027;-78
2021/08/13 06:24:07;;;;;;;42.30;19.83;;;;;;;;;;5061513;28;20070;-79
2021/08/13 06:26:32;;;;;;;30.33;19.90;;;;;;;;;;5062225;28;20017;-78
2021/08/13 06:28:58;;;;;;;32.58;20.23;;;;;;;;;;5063973;28;20024;-78
2021/08/13 06:31:25;;;;;;;32.90;20.42;;;;;;;;;;5081108;28;20077;-78
2021/08/13 06:33:51;;;;;;;37.30;20.30;;;;;;;;;;5076653;28;20103;-78
2021/08/13 06:36:18;;;;;;;32.30;19.70;;;;;;;;;;5070546;28;20425;-77
2021/08/13 06:38:44;;;;;;;32.90;19.48;;;;;;;;;;5077980;28;20353;-78
2021/08/13 06:41:09;;;;;;;35.60;18.45;;;;;;;;;;5075825;28;20027;-78
2021/08/13 06:43:35;;;;;;;31.17;19.50;;;;;;;;;;5074662;28;20028;-77
2021/08/13 06:46:00;;;;;;;32.60;19.13;;;;;;;;;;5074659;28;20103;-78
2021/08/13 06:48:26;;;;;;;34.55;18.70;;;;;;;;;;5075173;28;20110;-77
2021/08/13 06:50:52;;;;;;;39.53;19.77;;;;;;;;;;5073572;28;20028;-77
2021/08/13 06:53:18;;;;;;;40.78;18.70;;;;;;;;;;5075345;28;20082;-78
2021/08/13 06:55:43;;;;;;;37.80;20.77;;;;;;;;;;5072821;28;20556;-78
2021/08/13 06:58:09;;;;;;;37.55;19.42;;;;;;;;;;5075367;28;20105;-77
2021/08/13 07:00:35;;;;;;;35.30;19.92;;;;;;;;;;5075408;28;20503;-78
2021/08/13 07:03:00;;;;;;;33.60;20.25;;;;;;;;;;5072543;28;20044;-78
2021/08/13 07:05:26;;;;;;;31.23;19.42;;;;;;;;;;5067321;28;20439;-77
2021/08/13 07:07:52;;;;;;;31.98;20.02;;;;;;;;;;5060461;28;20032;-77
2021/08/13 07:10:17;;;;;;;44.35;20.10;;;;;;;;;;5057956;28;20017;-78
2021/08/13 07:12:43;;;;;;;32.22;18.83;;;;;;;;;;5068615;28;20032;-77
2021/08/13 07:15:10;;;;;;;41.38;19.27;;;;;;;;;;5069428;28;20029;-78
2021/08/13 07:17:35;;;;;;;32.60;19.05;;;;;;;;;;5069251;28;20032;-77
2021/08/13 07:20:01;;;;;;;29.55;18.75;;;;;;;;;;5074609;28;20107;-77
2021/08/13 07:22:27;;;;;;;34.92;18.65;;;;;;;;;;5067265;28;20052;-77
2021/08/13 07:24:52;;;;;;;38.40;18.52;;;;;;;;;;5057313;28;20017;-77
2021/08/13 07:27:17;;;;;;;30.40;19.02;;;;;;;;;;5054670;28;20021;-77
2021/08/13 07:29:43;;;;;;;34.85;20.60;;;;;;;;;;5054942;28;20083;-77
2021/08/13 07:32:08;;;;;;;38.25;18.65;;;;;;;;;;5054717;28;20060;-78
2021/08/13 07:34:33;;;;;;;40.40;19.38;;;;;;;;;;5054950;28;20025;-78
2021/08/13 07:36:59;;;;;;;34.05;19.10;;;;;;;;;;5065901;28;20366;-78
2021/08/13 07:39:24;;;;;;;30.15;18.02;;;;;;;;;;5073291;28;20025;-78
2021/08/13 07:41:49;;;;;;;32.67;18.60;;;;;;;;;;5074764;28;20025;-78
2021/08/13 07:44:15;;;;;;;34.13;19.08;;;;;;;;;;5075273;28;20426;-78
2021/08/13 07:46:40;;;;;;;30.42;19.05;;;;;;;;;;5076929;28;20028;-78
2021/08/13 07:49:06;;;;;;;33.83;19.15;;;;;;;;;;5077411;28;20111;-78
2021/08/13 07:51:32;;;;;;;26.48;18.08;;;;;;;;;;5077025;28;20553;-78
2021/08/13 07:53:57;;;;;;;37.15;18.33;;;;;;;;;;5077702;28;20031;-78
2021/08/13 07:56:22;;;;;;;37.65;18.63;;;;;;;;;;5079461;28;20088;-78
2021/08/13 07:58:48;;;;;;;25.50;18.70;;;;;;;;;;5078503;28;20028;-78
2021/08/13 08:01:13;;;;;;;26.10;17.27;;;;;;;;;;5079667;28;20028;-78
2021/08/13 08:03:38;;;;;;;24.52;16.48;;;;;;;;;;5077799;28;20073;-78
2021/08/13 08:06:04;;;;;;;32.92;17.27;;;;;;;;;;5078377;28;20024;-78
2021/08/13 08:08:30;;;;;;;25.60;16.48;;;;;;;;;;5077407;28;20107;-78
2021/08/13 08:10:55;;;;;;;28.83;17.88;;;;;;;;;;5079365;28;20090;-78
2021/08/13 08:13:20;;;;;;;28.35;17.02;;;;;;;;;;5077532;28;20032;-78
2021/08/13 08:15:46;;;;;;;30.98;16.33;;;;;;;;;;5076358;28;20028;-78
2021/08/13 08:18:12;;;;;;;33.17;18.23;;;;;;;;;;5074359;28;20427;-77
2021/08/13 08:20:37;;;;;;;29.00;17.63;;;;;;;;;;5074325;28;20031;-77
2021/08/13 08:23:03;;;;;;;25.35;17.15;;;;;;;;;;5076994;28;20115;-78
2021/08/13 08:25:29;;;;;;;23.02;16.52;;;;;;;;;;5076161;28;20070;-78
2021/08/13 08:27:55;;;;;;;26.80;17.50;;;;;;;;;;5077240;28;20031;-78
2021/08/13 08:30:21;;;;;;;30.65;17.17;;;;;;;;;;5074927;28;20020;-77
2021/08/13 08:32:47;;;;;;;27.08;17.08;;;;;;;;;;5054722;28;20029;-78
2021/08/13 08:35:12;;;;;;;27.38;16.23;;;;;;;;;;5054953;28;20370;-78
2021/08/13 08:37:53;;;;;;;26.95;16.40;;;;;;;;;;5054237;28;20037;-78
2021/08/13 08:40:26;;;;;;;26.13;16.65;;;;;;;;;;5054254;28;20021;-78
2021/08/13 08:42:56;;;;;;;27.35;16.48;;;;;;;;;;5055072;28;20074;-78
2021/08/13 08:45:23;;;;;;;30.05;16.70;;;;;;;;;;5055697;28;20021;-78
2021/08/13 08:47:49;;;;;;;26.10;17.27;;;;;;;;;;5053811;28;20025;-77
2021/08/13 08:50:14;;;;;;;23.75;15.80;;;;;;;;;;5065868;28;20099;-77
2021/08/13 08:52:43;;;;;;;21.65;13.88;;;;;;;;;;5053103;28;20033;-78
2021/08/13 08:55:08;;;;;;;24.80;14.23;;;;;;;;;;5059099;28;20027;-78
2021/08/13 08:57:39;;;;;;;20.52;14.10;;;;;;;;;;5083316;28;20024;-78
2021/08/13 09:00:06;;;;;;;17.92;13.38;;;;;;;;;;5075166;28;20454;-79
2021/08/13 09:02:32;;;;;;;24.05;13.68;;;;;;;;;;5057779;28;20029;-79
2021/08/13 09:04:58;;;;;;;20.58;13.45;;;;;;;;;;5062338;28;20461;-78
2021/08/13 09:07:24;;;;;;;23.17;13.80;;;;;;;;;;5072467;28;20453;-78
2021/08/13 09:09:49;;;;;;;20.27;13.65;;;;;;;;;;5074760;28;20056;-79
2021/08/13 09:12:15;;;;;;;20.40;13.60;;;;;;;;;;5070216;28;20027;-79
2021/08/13 09:14:41;;;;;;;23.13;14.35;;;;;;;;;;5068233;28;20024;-79
2021/08/13 09:17:07;;;;;;;24.20;14.05;;;;;;;;;;5076610;28;20496;-78
2021/08/13 09:19:44;;;;;;;24.23;14.27;;;;;;;;;;5063901;28;20017;-78
2021/08/13 09:22:21;;;;;;;20.95;14.98;;;;;;;;;;5064334;28;20036;-79
2021/08/13 09:24:49;;;;;;;24.55;16.30;;;;;;;;;;5064215;28;20366;-78
2021/08/13 09:27:21;;;;;;;28.13;16.90;;;;;;;;;;5062421;28;20032;-78
2021/08/13 09:30:09;;;;;;;21.95;16.15;;;;;;;;;;5069882;28;20028;-79
2021/08/13 09:32:35;;;;;;;24.35;16.92;;;;;;;;;;5061652;28;20504;-79
2021/08/13 09:35:03;;;;;;;22.88;16.38;;;;;;;;;;5064262;28;20080;-78
2021/08/13 09:37:28;;;;;;;25.33;16.23;;;;;;;;;;5067880;28;20082;-79
2021/08/13 09:39:55;;;;;;;30.60;18.08;;;;;;;;;;5058564;28;20116;-80
2021/08/13 09:42:31;;;;;;;26.77;16.77;;;;;;;;;;5073207;28;20020;-78
2021/08/13 09:45:03;;;;;;;27.20;17.13;;;;;;;;;;5088425;28;20032;-79
2021/08/13 09:47:45;;;;;;;25.73;17.17;;;;;;;;;;5072019;28;20039;-78
2021/08/13 09:50:13;;;;;;;31.23;19.45;;;;;;;;;;5076936;28;20035;-78
2021/08/13 09:52:39;;;;;;;32.47;19.35;;;;;;;;;;5058463;28;20029;-79
2021/08/13 09:55:11;;;;;;;30.33;19.08;;;;;;;;;;5057201;28;20440;-79
2021/08/13 09:57:45;;;;;;;27.52;18.73;;;;;;;;;;5071222;28;20017;-79
2021/08/13 10:00:13;;;;;;;35.70;20.73;;;;;;;;;;5076280;28;20453;-78
2021/08/13 10:02:39;;;;;;;28.88;19.20;;;;;;;;;;5065005;28;20028;-80
2021/08/13 10:05:26;;;;;;;34.88;20.33;;;;;;;;;;5074228;28;20024;-79
2021/08/13 10:08:00;;;;;;;27.75;17.83;;;;;;;;;;5073111;28;20024;-77
2021/08/13 10:10:32;;;;;;;36.53;21.05;;;;;;;;;;5065466;28;20016;-77
2021/08/13 10:12:58;;;;;;;;;;;;;;;;;;5067257;28;20045;-78
2021/08/13 10:15:43;;;;;;;35.47;22.55;;;;;;;;;;5058199;28;19916;-79
2021/08/13 10:18:12;;;;;;;34.25;21.60;;;;;;;;;;5065072;28;20396;-79
2021/08/13 10:20:47;;;;;;;33.08;21.88;;;;;;;;;;5069662;28;20029;-78
2021/08/13 10:23:13;;;;;;;30.50;21.27;;;;;;;;;;5066080;28;20060;-78
2021/08/13 10:25:39;;;;;;;32.00;21.02;;;;;;;;;;5071947;28;20017;-78
2021/08/13 10:28:05;;;;;;;31.95;20.67;;;;;;;;;;5081267;28;20021;-78
2021/08/13 10:30:30;;;;;;;29.38;20.90;;;;;;;;;;5084309;28;20027;-79
2021/08/13 10:32:58;;;;;;;29.80;19.27;;;;;;;;;;5084239;28;20541;-79
2021/08/13 10:35:39;;;;;;;28.10;19.20;;;;;;;;;;5082387;28;20096;-78
2021/08/13 10:38:06;;;;;;;22.02;15.77;;;;;;;;;;5086013;28;20063;-83
2021/08/13 10:40:33;;;;;;;23.85;14.43;;;;;;;;;;5085282;28;20052;-79
2021/08/13 10:43:00;;;;;;;24.58;15.50;;;;;;;;;;5077703;28;20028;-78
2021/08/13 10:45:31;;;;;;;22.85;15.43;;;;;;;;;;5066436;28;20055;-79
2021/08/13 10:48:18;;;;;;;23.85;14.05;;;;;;;;;;5066395;28;20090;-79
2021/08/13 10:50:44;;;;;;;24.33;15.38;;;;;;;;;;5068040;28;20033;-80
2021/08/13 10:53:30;;;;;;;23.67;13.82;;;;;;;;;;5066610;28;20099;-80
2021/08/13 10:55:57;;;;;;;26.40;15.00;;;;;;;;;;5066331;28;20193;-80
2021/08/13 10:58:41;;;;;;;23.48;14.40;;;;;;;;;;5066689;28;20021;-79
2021/08/13 11:01:09;;;;;;;20.45;12.07;;;;;;;;;;5065476;28;20048;-79
2021/08/13 11:03:36;;;;;;;15.95;10.40;;;;;;;;;;5066121;28;20032;-80
2021/08/13 11:06:02;;;;;;;15.00;9.32;;;;;;;;;;5065516;28;20020;-78
2021/08/13 11:08:39;;;;;;;13.18;8.93;;;;;;;;;;5078859;28;20067;-79
2021/08/13 11:11:06;;;;;;;13.35;9.20;;;;;;;;;;5075678;28;20035;-80
2021/08/13 11:13:40;;;;;;;13.20;7.43;;;;;;;;;;5076856;28;20028;-78
2021/08/13 11:16:29;;;;;;;9.98;5.82;;;;;;;;;;5084553;28;20025;-78
2021/08/13 11:18:59;;;;;;;5.00;3.85;;;;;;;;;;5078746;28;20050;-79
2021/08/13 11:21:37;;;;;;;6.72;2.90;;;;;;;;;;5085349;28;20024;-77
2021/08/13 11:24:08;;;;;;;5.10;2.28;;;;;;;;;;5082076;28;20021;-79
2021/08/13 11:26:58;;;;;;;8.27;2.93;;;;;;;;;;5066239;28;20074;-78
2021/08/13 11:29:30;;;;;;;7.20;2.80;;;;;;;;;;5081541;28;20024;-79
2021/08/13 11:32:14;;;;;;;;;;;;;;;;;;5082960;28;20035;-79
2021/08/13 11:34:58;;;;;;;4.15;2.55;;;;;;;;;;5083470;28;19916;-79
2021/08/13 11:37:45;;;;;;;4.72;2.22;;;;;;;;;;5067297;28;20021;-78
2021/08/13 11:40:14;;;;;;;5.43;2.30;;;;;;;;;;5063311;28;20025;-80
2021/08/13 11:42:47;;;;;;;5.13;2.47;;;;;;;;;;5062831;28;20024;-79
2021/08/13 11:45:14;;;;;;;4.57;2.63;;;;;;;;;;5072292;28;20115;-76
2021/08/13 11:47:54;;;;;;;2.97;2.13;;;;;;;;;;5077013;28;20035;-78
2021/08/13 11:50:20;;;;;;;5.65;2.40;;;;;;;;;;5075726;28;20029;-80
2021/08/13 11:52:50;;;;;;;4.22;1.90;;;;;;;;;;5079290;28;20067;-79
2021/08/13 11:55:21;;;;;;;2.13;1.92;;;;;;;;;;5074585;28;20569;-79
2021/08/13 11:57:50;;;;;;;3.97;2.22;;;;;;;;;;5073905;28;20033;-78
2021/08/13 12:00:18;;;;;;;4.30;2.03;;;;;;;;;;5077455;28;20025;-79
2021/08/13 12:02:44;;;;;;;1.90;1.70;;;;;;;;;;5078737;28;20032;-77
2021/08/13 12:05:12;;;;;;;2.80;1.75;;;;;;;;;;5080083;28;20027;-79
2021/08/13 12:07:38;;;;;;;2.08;1.30;;;;;;;;;;5060896;28;20469;-77
2021/08/13 12:10:18;;;;;;;4.93;1.85;;;;;;;;;;5067752;28;20051;-78
2021/08/13 12:12:44;;;;;;;5.63;1.50;;;;;;;;;;5072476;28;20077;-78
2021/08/13 12:15:12;;;;;;;2.95;1.85;;;;;;;;;;5076428;28;20042;-78
2021/08/13 12:17:38;;;;;;;5.97;1.60;;;;;;;;;;5066996;28;20017;-77
2021/08/13 12:20:08;;;;;;;2.17;1.42;;;;;;;;;;5062000;28;20112;-78
2021/08/13 12:22:39;;;;;;;3.55;1.33;;;;;;;;;;5063880;28;20385;-77
2021/08/13 12:25:09;;;;;;;8.65;1.63;;;;;;;;;;5074893;28;20095;-77
2021/08/13 12:27:37;;;;;;;4.65;2.03;;;;;;;;;;5072334;28;20493;-77
2021/08/13 12:30:13;;;;;;;3.00;1.70;;;;;;;;;;5072486;28;20038;-77
2021/08/13 12:32:42;;;;;;;2.42;1.70;;;;;;;;;;5069115;28;20035;-77
2021/08/13 12:35:09;;;;;;;4.18;1.70;;;;;;;;;;5070067;28;20120;-76
2021/08/13 12:37:36;;;;;;;4.03;1.23;;;;;;;;;;5075605;28;20025;-78
2021/08/13 12:40:03;;;;;;;6.18;1.90;;;;;;;;;;5074479;28;20020;-76
2021/08/13 12:42:29;;;;;;;4.25;1.67;;;;;;;;;;5074238;28;20020;-80
2021/08/13 12:44:58;;;;;;;1.98;1.63;;;;;;;;;;5069037;28;20055;-78
2021/08/13 12:47:25;;;;;;;5.72;2.03;;;;;;;;;;5074194;28;20021;-78
2021/08/13 12:49:52;;;;;;;4.00;1.80;;;;;;;;;;5069992;28;20036;-78
2021/08/13 12:52:21;;;;;;;2.15;1.92;;;;;;;;;;5077127;28;20157;-77
2021/08/13 12:54:51;;;;;;;2.38;1.92;;;;;;;;;;5070481;28;20036;-76
2021/08/13 12:57:18;;;;;;;2.42;1.88;;;;;;;;;;5075084;28;20463;-77
2021/08/13 13:00:08;;;;;;;4.28;2.47;;;;;;;;;;5078286;28;20025;-79
2021/08/13 13:02:34;;;;;;;5.93;1.85;;;;;;;;;;5076471;28;20027;-77
2021/08/13 13:04:59;;;;;;;4.55;2.28;;;;;;;;;;5080540;28;20103;-76
2021/08/13 13:07:33;;;;;;;3.90;2.00;;;;;;;;;;5081164;28;20021;-80
2021/08/13 13:10:23;;;;;;;6.28;2.15;;;;;;;;;;5082047;28;20028;-78
2021/08/13 13:12:50;;;;;;;5.20;2.35;;;;;;;;;;5073682;28;20025;-78
2021/08/13 13:15:27;;;;;;;5.75;2.10;;;;;;;;;;5059605;28;20326;-79
2021/08/13 13:17:56;;;;;;;6.07;2.50;;;;;;;;;;5059239;28;20033;-78
2021/08/13 13:20:21;;;;;;;6.43;2.88;;;;;;;;;;5059505;28;20500;-77
2021/08/13 13:23:05;;;;;;;4.07;2.70;;;;;;;;;;5059657;28;20024;-77
2021/08/13 13:25:41;;;;;;;6.90;3.40;;;;;;;;;;5059351;28;20017;-76
2021/08/13 13:28:06;;;;;;;5.20;3.13;;;;;;;;;;5076826;28;20024;-78
2021/08/13 13:30:44;;;;;;;6.45;3.65;;;;;;;;;;5080548;28;20036;-78
2021/08/13 13:33:12;;;;;;;9.68;3.55;;;;;;;;;;5079948;28;20060;-77
2021/08/13 13:35:43;;;;;;;8.48;4.70;;;;;;;;;;5080696;28;20021;-79
2021/08/13 13:38:11;;;;;;;7.70;4.45;;;;;;;;;;5080987;28;20031;-78
2021/08/13 13:40:40;;;;;;;8.82;4.22;;;;;;;;;;5080703;28;20085;-79
2021/08/13 13:43:07;;;;;;;12.65;4.57;;;;;;;;;;5078452;28;20022;-78
2021/08/13 13:45:33;;;;;;;8.77;4.38;;;;;;;;;;5079669;28;20086;-78
2021/08/13 13:47:58;;;;;;;8.48;4.80;;;;;;;;;;5078541;28;20032;-77
2021/08/13 13:50:26;;;;;;;10.55;5.10;;;;;;;;;;5078982;28;20035;-78
2021/08/13 13:52:51;;;;;;;12.93;4.50;;;;;;;;;;5079969;28;20024;-78
2021/08/13 13:55:17;;;;;;;5.90;4.28;;;;;;;;;;5077590;28;20052;-78
2021/08/13 13:57:42;;;;;;;10.80;4.72;;;;;;;;;;5078666;28;20116;-77
2021/08/13 14:00:10;;;;;;;8.48;4.70;;;;;;;;;;5076144;28;20089;-77
2021/08/13 14:02:37;;;;;;;12.18;4.88;;;;;;;;;;5079986;28;20487;-78
2021/08/13 14:05:04;;;;;;;7.28;4.80;;;;;;;;;;5079132;28;20028;-79
2021/08/13 14:07:29;;;;;;;7.97;4.50;;;;;;;;;;5080059;28;20480;-78
2021/08/13 14:09:55;;;;;;;11.13;4.75;;;;;;;;;;5078911;28;20077;-79
2021/08/13 14:12:20;;;;;;;10.30;4.70;;;;;;;;;;5077762;28;20020;-77
2021/08/13 14:14:45;;;;;;;9.23;4.78;;;;;;;;;;5077139;28;20056;-80
2021/08/13 14:17:12;;;;;;;12.30;4.70;;;;;;;;;;5079021;28;20483;-78
2021/08/13 14:19:38;;;;;;;11.00;4.63;;;;;;;;;;5085011;28;20028;-78
2021/08/13 14:22:03;;;;;;;9.10;4.90;;;;;;;;;;5077167;28;20077;-77
2021/08/13 14:24:29;;;;;;;12.48;4.65;;;;;;;;;;5078209;28;20017;-78
2021/08/13 14:26:55;;;;;;;9.38;3.90;;;;;;;;;;5080264;28;20020;-80
2021/08/13 14:29:20;;;;;;;6.35;4.00;;;;;;;;;;5081123;28;20441;-79